OIHH  Hamadan  Airport

Hamadan, Iran

Add Bookmark
ICAO OIHH
IATA HDM
Type Airport
Status Operational
Latitude
34° 52' 9" N
34.869202
Longitude
48° 33' 9" E
48.552502
Local (DST + 5) UTC (GMT + 4)
Jul 7, 2015 12:38 Jul 6, 2015 20:08
Sunrise-Sunset Local UTC
Begin Civil Twilight 05:37 01:07
Sunrise 06:07 01:37
Sunset 08:34 16:04
End Civil Twilight 09:03 16:33
VFR
VFR
MVFR
MVFR
IFR
IFR
LIFR
LIFR
Unknown
Unavailable

Current Weather

METAR Observed VFR
OIHH 061756Z 13004KT 9999 BKN040 30/01 Q1015 Mon, Jul 6, 2015 @ 17:56 UTC
(2 Hours, 12 Minutes ago)
Visual Flight Rules
Wind Visibility Clouds Conditions
130° at 4 knots (7 kph) 10 km or more
  • Broken at 4,000 ft AGL
  • No significant weather
Temperatures Readings Precipitation
Current Temp
30°C
86°F
Dewpoint
1°C
34°F
Humidity 15%
Altimeter 29.97" Hg
Sea Level Pressure 1,015 mb
Field Elevation
1,757 m
5,764 ft
None Recorded

Additional weather within a 92.6km radius of OIHH

Map ICAO Location
OIHM 69.5km S/SE (160°)
VFR
VFR
MVFR
MVFR
IFR
IFR
LIFR
LIFR
Unknown
Unavailable
-
-

CheckWX.com is intended as a tool to help pilots better visualize weather data. It is not intended as a substitute for an official weather briefing obtained from a Flight Service Station. CheckWX.com does not meet the FAA requirements for an official pre-flight weather briefing. Therefore, it's important that pilots still call and obtain an official FSS pre-flight weather briefing.

© 2007-2015 CheckWX.com
20:08:10 UTC